Time;durP1;ratioP1;P1;durP2;ratioP2;P2;SDS_P1;SDS_P2;PMS_P1;PMS_P2;Temp;Humidity;BMP_temperature;BMP_pressure;BME280_temperature;BME280_humidity;BME280_pressure;Samples;Min_cycle;Max_cycle;Signal;HPM_P1;HPM_P2
2023/04/17 00:00:39;;;;;;;;;;;;;;;12.20;100.00;101280.84;4903209;29;19927;-87
2023/04/17 00:03:05;;;;;;;;;;;;;;;12.19;100.00;101271.22;4916021;29;19928;-87
2023/04/17 00:05:32;;;;;;;;;;;;;;;12.14;100.00;101279.59;4889558;29;19923;-87
2023/04/17 00:07:58;;;;;;;;;;;;;;;12.10;100.00;101280.84;4924844;29;19920;-87
2023/04/17 00:10:24;;;;;;;;;;;;;;;12.05;100.00;101285.66;4899520;29;19924;-87
2023/04/17 00:12:50;;;;;;;;;;;;;;;12.06;100.00;101284.69;4921273;29;19950;-86
2023/04/17 00:15:15;;;;;;;;;;;;;;;12.04;100.00;101279.50;4907115;29;19955;-87
2023/04/17 00:17:41;;;;;;;;;;;;;;;12.01;100.00;101277.13;4908612;29;20256;-87
2023/04/17 00:20:10;;;;;;;;;;;;;;;12.00;100.00;101277.25;4889614;29;19919;-87
2023/04/17 00:22:36;;;;;;;;;;;;;;;11.98;100.00;101277.41;4911414;29;19931;-86
2023/04/17 00:25:02;;;;;;;;;;;;;;;11.97;100.00;101286.31;4921920;29;19927;-87
2023/04/17 00:27:28;;;;;;;;;;;;;;;12.00;100.00;101282.56;4911442;29;19931;-87
2023/04/17 00:29:53;;;;;;;;;;;;;;;12.00;100.00;101277.25;4907750;29;20011;-87
2023/04/17 00:32:19;;;;;;;;;;;;;;;12.03;100.00;101279.66;4915046;29;19951;-87
2023/04/17 00:34:44;;;;;;;;;;;;;;;12.02;100.00;101283.28;4917412;29;20440;-87
2023/04/17 00:37:10;;;;;;;;;;;;;;;12.03;100.00;101277.00;4899580;29;19927;-87
2023/04/17 00:39:36;;;;;;;;;;;;;;;12.04;100.00;101276.00;4916862;29;20565;-87
2023/04/17 00:42:02;;;;;;;;;;;;;;;12.03;100.00;101271.69;4903979;29;19919;-87
2023/04/17 00:44:28;;;;;;;;;;;;;;;11.99;100.00;101280.91;4905964;29;19919;-86
2023/04/17 00:46:54;;;;;;;;;;;;;;;11.98;100.00;101274.75;4899823;29;19926;-86
2023/04/17 00:49:20;;;;;;;;;;;;;;;11.89;100.00;101279.03;4910117;29;20017;-87
2023/04/17 00:51:47;;;;;;;;;;;;;;;11.88;100.00;101281.81;4896764;29;19928;-87
2023/04/17 00:54:13;;;;;;;;;;;;;;;11.92;100.00;101275.28;4938338;29;19923;-86
2023/04/17 00:56:39;;;;;;;;;;;;;;;11.90;100.00;101275.41;4907975;29;19973;-87
2023/04/17 00:59:10;;;;;;;;;;;;;;;11.87;100.00;101283.63;4872635;29;19934;-87
2023/04/17 01:01:36;;;;;;;;;;;;;;;11.84;100.00;101281.25;4906662;29;19931;-86
2023/04/17 01:04:03;;;;;;;;;;;;;;;11.83;100.00;101284.88;4896087;29;19998;-87
2023/04/17 01:06:30;;;;;;;;;;;;;;;11.81;100.00;101280.66;4924334;29;19954;-87
2023/04/17 01:08:56;;;;;;;;;;;;;;;11.83;100.00;101276.06;4927888;29;19923;-87
2023/04/17 01:11:22;;;;;;;;;;;;;;;11.86;100.00;101274.00;4920160;29;19938;-87
2023/04/17 01:13:48;;;;;;;;;;;;;;;11.90;100.00;101278.06;4894588;29;19929;-87
2023/04/17 01:16:15;;;;;;;;;;;;;;;11.89;100.00;101288.78;4923176;29;20204;-81
2023/04/17 01:18:41;;;;;;;;;;;;;;;11.88;100.00;101272.03;4907013;29;21171;-82
2023/04/17 01:21:06;;;;;;;;;;;;;;;11.91;100.00;101287.69;4913417;29;19919;-86
2023/04/17 01:23:41;;;;;;;;;;;;;;;11.94;100.00;101301.63;4844432;29;20303;-87
2023/04/17 01:26:07;;;;;;;;;;;;;;;11.96;100.00;101297.88;4919315;29;19919;-87
2023/04/17 01:28:33;;;;;;;;;;;;;;;11.95;100.00;101288.25;4929217;29;19926;-87
2023/04/17 01:30:58;;;;;;;;;;;;;;;11.98;100.00;101288.00;4901843;29;19934;-87
2023/04/17 01:33:24;;;;;;;;;;;;;;;11.98;100.00;101289.78;4886602;29;19928;-87
2023/04/17 01:35:50;;;;;;;;;;;;;;;11.94;100.00;101291.03;4921180;29;20455;-87
2023/04/17 01:38:16;;;;;;;;;;;;;;;11.91;100.00;101294.81;4940526;29;20379;-87
2023/04/17 01:40:41;;;;;;;;;;;;;;;11.88;100.00;101290.59;4915375;29;19922;-87
2023/04/17 01:43:07;;;;;;;;;;;;;;;11.89;100.00;101292.28;4915104;29;19958;-86
2023/04/17 01:45:32;;;;;;;;;;;;;;;11.91;100.00;101294.81;4927699;29;19919;-87
2023/04/17 01:47:59;;;;;;;;;;;;;;;11.92;100.00;101291.19;4891183;29;20373;-87
2023/04/17 01:50:26;;;;;;;;;;;;;;;11.90;100.00;101288.66;4912356;29;19986;-87
2023/04/17 01:52:52;;;;;;;;;;;;;;;11.91;100.00;101284.22;4919632;29;19930;-87
2023/04/17 01:55:17;;;;;;;;;;;;;;;11.94;100.00;101288.38;4911042;29;19923;-87
2023/04/17 01:57:43;;;;;;;;;;;;;;;11.91;100.00;101287.69;4923888;29;19974;-88
2023/04/17 02:00:09;;;;;;;;;;;;;;;11.88;100.00;101289.78;4902513;29;19925;-87
2023/04/17 02:02:38;;;;;;;;;;;;;;;11.83;100.00;101290.16;4932026;29;19941;-87
2023/04/17 02:05:04;;;;;;;;;;;;;;;11.81;100.00;101289.44;4912317;29;19946;-87
2023/04/17 02:07:29;;;;;;;;;;;;;;;11.82;100.00;101283.16;4880006;29;19919;-87
2023/04/17 02:09:56;;;;;;;;;;;;;;;11.81;100.00;101289.44;4925325;29;19954;-87
2023/04/17 02:12:22;;;;;;;;;;;;;;;11.83;100.00;101282.22;4911114;29;19958;-87
2023/04/17 02:14:49;;;;;;;;;;;;;;;11.83;100.00;101289.31;4912829;29;19927;-87
2023/04/17 02:17:17;;;;;;;;;;;;;;;11.84;100.00;101289.19;4895565;29;20355;-87
2023/04/17 02:19:42;;;;;;;;;;;;;;;11.83;100.00;101290.16;4913352;29;19934;-86
2023/04/17 02:22:08;;;;;;;;;;;;;;;11.82;100.00;101280.53;4901143;29;19919;-86
2023/04/17 02:24:34;;;;;;;;;;;;;;;11.81;100.00;101283.31;4931576;29;19925;-87
2023/04/17 02:26:59;;;;;;;;;;;;;;;11.76;100.00;101278.41;4922190;29;20505;-87
2023/04/17 02:29:25;;;;;;;;;;;;;;;11.71;100.00;101277.94;4912856;29;19919;-87
2023/04/17 02:31:51;;;;;;;;;;;;;;;11.67;100.00;101285.34;4926569;29;19943;-87
2023/04/17 02:34:17;;;;;;;;;;;;;;;11.60;100.00;101285.00;4906094;29;19962;-88
2023/04/17 02:36:42;;;;;;;;;;;;;;;11.57;100.00;101284.44;4930781;29;19923;-88
2023/04/17 02:39:08;;;;;;;;;;;;;;;11.51;100.00;101286.66;4910869;29;19923;-86
2023/04/17 02:41:34;;;;;;;;;;;;;;;11.49;100.00;101277.97;4907677;29;20377;-86
2023/04/17 02:44:00;;;;;;;;;;;;;;;11.47;100.00;101277.25;4895854;29;19919;-87
2023/04/17 02:46:26;;;;;;;;;;;;;;;11.45;100.00;101275.72;4909731;29;19923;-87
2023/04/17 02:48:51;;;;;;;;;;;;;;;11.45;100.00;101273.91;4893968;29;19919;-86
2023/04/17 02:51:19;;;;;;;;;;;;;;;11.46;100.00;101280.91;4910851;29;19930;-86
2023/04/17 02:53:47;;;;;;;;;;;;;;;11.50;100.00;101278.81;4923162;29;19923;-87
2023/04/17 02:56:13;;;;;;;;;;;;;;;11.51;100.00;101283.16;4936398;28;19927;-87
2023/04/17 02:58:39;;;;;;;;;;;;;;;11.56;100.00;101282.75;4897904;29;19974;-87
2023/04/17 03:01:07;;;;;;;;;;;;;;;11.58;100.00;101276.34;4924293;29;19919;-87
2023/04/17 03:03:40;;;;;;;;;;;;;;;11.62;100.00;101283.09;4897360;29;19926;-87
2023/04/17 03:06:09;;;;;;;;;;;;;;;11.68;100.00;101280.88;4894108;29;20340;-87
2023/04/17 03:08:37;;;;;;;;;;;;;;;11.71;100.00;101285.91;4896084;29;19974;-87
2023/04/17 03:11:04;;;;;;;;;;;;;;;11.74;100.00;101283.84;4907464;29;19919;-87
2023/04/17 03:13:30;;;;;;;;;;;;;;;11.76;100.00;101281.06;4913345;29;20434;-87
2023/04/17 03:15:55;;;;;;;;;;;;;;;11.78;100.00;101281.78;4914682;29;20300;-87
2023/04/17 03:18:21;;;;;;;;;;;;;;;11.84;100.00;101286.53;4921164;29;20003;-87
2023/04/17 03:20:47;;;;;;;;;;;;;;;11.90;100.00;101282.50;4921056;29;19929;-87
2023/04/17 03:23:13;;;;;;;;;;;;;;;11.96;100.00;101289.94;4912086;29;19926;-87
2023/04/17 03:25:38;;;;;;;;;;;;;;;12.01;100.00;101284.22;4881016;29;20005;-86
2023/04/17 03:28:05;;;;;;;;;;;;;;;12.06;100.00;101289.13;4904359;29;19927;-87
2023/04/17 03:30:32;;;;;;;;;;;;;;;12.10;100.00;101285.28;4939939;28;19925;-87
2023/04/17 03:33:01;;;;;;;;;;;;;;;12.09;100.00;101295.03;4910775;29;19918;-87
2023/04/17 03:35:29;;;;;;;;;;;;;;;12.00;100.00;101291.34;4937643;29;20368;-86
2023/04/17 03:37:55;;;;;;;;;;;;;;;11.90;100.00;101295.75;4924562;29;19934;-87
2023/04/17 03:40:21;;;;;;;;;;;;;;;11.78;100.00;101290.53;4933396;29;19923;-87
2023/04/17 03:42:47;;;;;;;;;;;;;;;11.71;100.00;101304.44;4915409;29;20014;-86
2023/04/17 03:45:13;;;;;;;;;;;;;;;11.65;100.00;101303.16;4937711;29;19927;-86
2023/04/17 03:47:39;;;;;;;;;;;;;;;11.59;100.00;101312.47;4922054;29;19957;-87
2023/04/17 03:50:06;;;;;;;;;;;;;;;11.52;100.00;101306.00;4927512;29;19956;-86
2023/04/17 03:52:36;;;;;;;;;;;;;;;11.46;100.00;101315.31;4943745;28;19929;-86
2023/04/17 03:55:03;;;;;;;;;;;;;;;11.41;100.00;101314.84;4906907;29;19926;-87
2023/04/17 03:57:29;;;;;;;;;;;;;;;11.37;100.00;101316.91;4923635;29;20463;-86
2023/04/17 03:59:54;;;;;;;;;;;;;;;11.33;100.00;101306.69;4925468;29;19974;-87
2023/04/17 04:02:21;;;;;;;;;;;;;;;11.32;100.00;101318.25;4918430;29;19927;-86
2023/04/17 04:04:49;;;;;;;;;;;;;;;11.32;100.00;101324.41;4938338;28;19926;-86
2023/04/17 04:07:15;;;;;;;;;;;;;;;11.31;100.00;101320.06;4913944;29;19926;-87
2023/04/17 04:09:40;;;;;;;;;;;;;;;11.34;100.00;101319.81;4925651;29;19923;-87
2023/04/17 04:12:07;;;;;;;;;;;;;;;11.36;100.00;101317.03;4896706;29;19926;-86
2023/04/17 04:14:38;;;;;;;;;;;;;;;11.37;100.00;101324.03;4904061;29;19919;-87
2023/04/17 04:17:04;;;;;;;;;;;;;;;11.38;100.00;101328.34;4927532;29;20536;-87
2023/04/17 04:19:30;;;;;;;;;;;;;;;11.44;100.00;101329.63;4944243;29;20450;-87
2023/04/17 04:21:56;;;;;;;;;;;;;;;11.46;100.00;101330.34;4914999;29;20387;-86
2023/04/17 04:24:29;;;;;;;;;;;;;;;11.47;100.00;101327.56;4905856;29;20723;-87
2023/04/17 04:27:04;;;;;;;;;;;;;;;11.48;100.00;101331.88;4914263;29;20070;-87
2023/04/17 04:29:31;;;;;;;;;;;;;;;11.44;100.00;101340.22;4910820;29;19994;-87
2023/04/17 04:32:01;;;;;;;;;;;;;;;11.39;100.00;101336.16;4907564;29;20033;-87
2023/04/17 04:34:35;;;;;;;;;;;;;;;11.40;100.00;101339.66;4925965;29;19926;-87
2023/04/17 04:37:01;;;;;;;;;;;;;;;11.42;100.00;101335.03;4909577;29;20262;-87
2023/04/17 04:39:40;;;;;;;;;;;;;;;11.35;100.00;101336.53;4908041;29;19926;-87
2023/04/17 04:42:08;;;;;;;;;;;;;;;11.33;100.00;101341.97;4910614;29;19919;-87
2023/04/17 04:44:57;;;;;;;;;;;;;;;11.30;100.00;101339.56;4914328;29;19952;-87
2023/04/17 04:47:26;;;;;;;;;;;;;;;11.29;100.00;101348.47;4915870;29;19923;-86
2023/04/17 04:49:52;;;;;;;;;;;;;;;11.22;100.00;101334.91;4881815;29;19926;-87
2023/04/17 04:52:20;;;;;;;;;;;;;;;11.15;100.00;101342.50;4892923;29;19978;-87
2023/04/17 04:54:47;;;;;;;;;;;;;;;11.10;100.00;101342.03;4894799;29;19979;-87
2023/04/17 04:57:13;;;;;;;;;;;;;;;11.05;100.00;101349.53;4905588;29;20018;-86
2023/04/17 04:59:41;;;;;;;;;;;;;;;10.95;100.00;101344.13;4919277;29;20420;-86
2023/04/17 05:02:25;;;;;;;;;;;;;;;10.90;100.00;101346.31;4904434;29;19960;-86
2023/04/17 05:04:51;;;;;;;;;;;;;;;10.81;100.00;101347.91;4933858;29;19991;-86
2023/04/17 05:07:17;;;;;;;;;;;;;;;10.77;100.00;101349.94;4915091;29;20385;-87
2023/04/17 05:09:44;;;;;;;;;;;;;;;10.73;100.00;101347.66;4895272;29;20017;-87
2023/04/17 05:12:10;;;;;;;;;;;;;;;10.74;100.00;101349.34;4879085;29;20041;-87
2023/04/17 05:14:38;;;;;;;;;;;;;;;10.71;100.00;101354.88;4926903;29;19966;-86
2023/04/17 05:17:05;;;;;;;;;;;;;;;10.70;100.00;101354.06;4886458;29;20006;-87
2023/04/17 05:19:31;;;;;;;;;;;;;;;10.67;100.00;101357.75;4926419;29;19924;-87
2023/04/17 05:22:01;;;;;;;;;;;;;;;10.66;100.00;101355.25;4893306;29;19955;-86
2023/04/17 05:24:30;;;;;;;;;;;;;;;10.65;100.00;101356.22;4889235;29;19923;-85
2023/04/17 05:26:55;;;;;;;;;;;;;;;10.61;100.00;101358.25;4898015;29;19923;-87
2023/04/17 05:29:24;;;;;;;;;;;;;;;10.60;100.00;101361.88;4907274;29;20440;-87
2023/04/17 05:31:50;;;;;;;;;;;;;;;10.63;100.00;101366.91;4912545;29;19919;-81
2023/04/17 05:34:39;;;;;;;;;;;;;;;10.63;100.00;101366.06;4902721;29;19927;-81
2023/04/17 05:37:05;;;;;;;;;;;;;;;10.60;100.00;101364.50;4905560;29;20356;-87
2023/04/17 05:39:31;;;;;;;;;;;;;;;10.61;100.00;101378.56;4925828;29;19919;-87
2023/04/17 05:41:57;;;;;;;;;;;;;;;10.63;100.00;101380.13;4927327;29;20552;-87
2023/04/17 05:44:22;;;;;;;;;;;;;;;10.69;100.00;101380.63;4900200;29;19923;-87
2023/04/17 05:46:48;;;;;;;;;;;;;;;10.66;100.00;101379.03;4908880;29;19926;-87
2023/04/17 05:49:14;;;;;;;;;;;;;;;10.67;100.00;101381.56;4926370;29;19945;-87
2023/04/17 05:51:40;;;;;;;;;;;;;;;10.71;100.00;101378.66;4924469;29;19982;-87
2023/04/17 05:54:06;;;;;;;;;;;;;;;10.75;100.00;101385.41;4898985;29;19923;-86
2023/04/17 05:56:31;;;;;;;;;;;;;;;10.81;100.00;101378.78;4896194;29;19971;-81
2023/04/17 05:58:57;;;;;;;;;;;;;;;10.82;100.00;101385.75;4924351;29;20291;-82
2023/04/17 06:01:24;;;;;;;;;;;;;;;10.85;100.00;101385.50;4882483;29;19926;-87
2023/04/17 06:03:52;;;;;;;;;;;;;;;10.86;100.00;101393.31;4909126;29;19926;-86
2023/04/17 06:06:22;;;;;;;;;;;;;;;10.84;100.00;101387.31;4912923;29;19918;-87
2023/04/17 06:08:47;;;;;;;;;;;;;;;10.86;100.00;101395.13;4930418;29;19966;-88
2023/04/17 06:11:14;;;;;;;;;;;;;;;10.88;100.00;101401.97;4928882;29;19919;-87
2023/04/17 06:13:41;;;;;;;;;;;;;;;10.82;100.00;101401.63;4912962;29;20417;-87
2023/04/17 06:16:07;;;;;;;;;;;;;;;10.82;100.00;101410.41;4919916;29;20017;-88
2023/04/17 06:18:33;;;;;;;;;;;;;;;10.86;100.00;101405.72;4926136;29;20009;-87
2023/04/17 06:20:58;;;;;;;;;;;;;;;10.85;100.00;101404.00;4931427;29;19988;-87
2023/04/17 06:23:26;;;;;;;;;;;;;;;10.87;100.00;101404.75;4914877;29;19919;-87
2023/04/17 06:25:52;;;;;;;;;;;;;;;10.88;100.00;101409.06;4909816;29;19973;-87
2023/04/17 06:28:18;;;;;;;;;;;;;;;10.87;100.00;101413.53;4912058;29;19918;-87
2023/04/17 06:30:45;;;;;;;;;;;;;;;10.88;100.00;101417.00;4914728;29;20943;-87
2023/04/17 06:33:11;;;;;;;;;;;;;;;10.88;100.00;101419.63;4894094;29;19973;-87
2023/04/17 06:35:37;;;;;;;;;;;;;;;10.92;100.00;101418.44;4930237;29;19919;-87
2023/04/17 06:38:23;;;;;;;;;;;;;;;10.98;100.00;101422.41;4926964;29;19923;-88
2023/04/17 06:40:49;;;;;;;;;;;;;;;11.00;100.00;101421.31;4912145;29;19920;-88
2023/04/17 06:43:15;;;;;;;;;;;;;;;11.06;100.00;101427.06;4894127;29;19927;-87
2023/04/17 06:45:41;;;;;;;;;;;;;;;11.11;100.00;101422.25;4921920;29;19929;-86
2023/04/17 06:48:07;;;;;;;;;;;;;;;11.09;100.00;101432.13;4918386;29;20434;-87
2023/04/17 06:50:33;;;;;;;;;;;;;;;11.11;100.00;101431.03;4920112;29;19927;-87
2023/04/17 06:52:58;;;;;;;;;;;;;;;11.10;100.00;101437.28;4901709;29;19919;-86
2023/04/17 06:55:25;;;;;;;;;;;;;;;11.06;100.00;101430.56;4896187;28;19919;-86
2023/04/17 06:57:51;;;;;;;;;;;;;;;11.04;100.00;101438.63;4913735;29;19930;-87
2023/04/17 07:00:16;;;;;;;;;;;;;;;11.04;100.00;101440.41;4930553;29;20022;-87
2023/04/17 07:02:42;;;;;;;;;;;;;;;11.07;100.00;101445.47;4918974;29;19923;-86
2023/04/17 07:05:08;;;;;;;;;;;;;;;11.04;100.00;101446.56;4929216;28;19938;-87
2023/04/17 07:07:35;;;;;;;;;;;;;;;11.03;100.00;101444.03;4884516;29;19923;-86
2023/04/17 07:10:02;;;;;;;;;;;;;;;11.03;100.00;101431.66;4918858;29;19953;-86
2023/04/17 07:12:27;;;;;;;;;;;;;;;11.01;100.00;101438.88;4937993;28;20360;-87
2023/04/17 07:14:53;;;;;;;;;;;;;;;11.01;100.00;101441.50;4922910;29;19922;-87
2023/04/17 07:17:19;;;;;;;;;;;;;;;11.00;100.00;101441.63;4919860;29;20380;-87
2023/04/17 07:19:44;;;;;;;;;;;;;;;11.04;100.00;101437.78;4924546;29;20812;-87
2023/04/17 07:22:10;;;;;;;;;;;;;;;11.07;100.00;101447.28;4889930;29;20002;-87
2023/04/17 07:24:36;;;;;;;;;;;;;;;11.13;100.00;101446.78;4906488;29;19977;-87
2023/04/17 07:27:02;;;;;;;;;;;;;;;11.12;100.00;101445.94;4908734;29;19926;-87
2023/04/17 07:29:28;;;;;;;;;;;;;;;11.06;100.00;101443.78;4905393;29;19926;-87
2023/04/17 07:31:54;;;;;;;;;;;;;;;11.06;100.00;101446.44;4908630;29;20513;-87
2023/04/17 07:34:20;;;;;;;;;;;;;;;11.09;100.00;101440.91;4904043;29;19962;-86
2023/04/17 07:36:48;;;;;;;;;;;;;;;11.09;100.00;101451.47;4938855;28;19927;-86
2023/04/17 07:39:14;;;;;;;;;;;;;;;11.08;100.00;101441.03;4925824;29;20378;-87
2023/04/17 07:41:39;;;;;;;;;;;;;;;11.08;100.00;101452.47;4904662;29;19927;-86
2023/04/17 07:44:05;;;;;;;;;;;;;;;11.10;100.00;101455.81;4932356;28;19927;-86
2023/04/17 07:46:31;;;;;;;;;;;;;;;11.12;100.00;101453.03;4889323;29;19984;-86
2023/04/17 07:48:57;;;;;;;;;;;;;;;11.14;100.00;101461.69;4904087;29;19967;-87
2023/04/17 07:51:23;;;;;;;;;;;;;;;11.19;100.00;101461.31;4913434;29;19998;-88
2023/04/17 07:53:49;;;;;;;;;;;;;;;11.25;100.00;101463.47;4917638;29;19919;-87
2023/04/17 07:56:16;;;;;;;;;;;;;;;11.31;100.00;101451.56;4898938;29;19975;-87
2023/04/17 07:58:43;;;;;;;;;;;;;;;11.31;100.00;101462.16;4923379;29;19923;-86
2023/04/17 08:01:09;;;;;;;;;;;;;;;11.32;100.00;101461.19;4902222;29;20289;-86
2023/04/17 08:03:35;;;;;;;;;;;;;;;11.26;100.00;101458.06;4909067;29;19927;-86
2023/04/17 08:06:00;;;;;;;;;;;;;;;11.27;100.00;101465.06;4921838;29;20395;-86
2023/04/17 08:08:26;;;;;;;;;;;;;;;11.30;100.00;101461.31;4905095;29;19927;-86
2023/04/17 08:10:52;;;;;;;;;;;;;;;11.33;100.00;101455.78;4895080;29;19996;-87
2023/04/17 08:13:17;;;;;;;;;;;;;;;11.33;100.00;101457.56;4912258;28;19949;-86
2023/04/17 08:15:44;;;;;;;;;;;;;;;11.33;100.00;101468.16;4904276;29;19962;-86
2023/04/17 08:18:10;;;;;;;;;;;;;;;11.33;100.00;101470.78;4906717;29;19927;-86
2023/04/17 08:20:35;;;;;;;;;;;;;;;11.33;100.00;101470.78;4937045;28;20339;-87
2023/04/17 08:23:01;;;;;;;;;;;;;;;11.26;100.00;101467.81;4892983;29;20370;-85
2023/04/17 08:25:27;;;;;;;;;;;;;;;11.23;100.00;101475.97;4907156;29;20444;-85
2023/04/17 08:27:52;;;;;;;;;;;;;;;11.23;100.00;101479.47;4880386;29;19922;-81
2023/04/17 08:30:19;;;;;;;;;;;;;;;11.22;100.00;101483.09;4928693;29;20042;-82
2023/04/17 08:32:46;;;;;;;;;;;;;;;11.21;100.00;101491.97;4911057;29;19954;-87
2023/04/17 08:35:12;;;;;;;;;;;;;;;11.19;100.00;101485.16;4892178;29;19982;-86
2023/04/17 08:37:38;;;;;;;;;;;;;;;11.19;100.00;101491.28;4903548;29;19934;-86
2023/04/17 08:40:08;;;;;;;;;;;;;;;11.19;100.00;101490.44;4913559;29;19956;-87
2023/04/17 08:42:35;;;;;;;;;;;;;;;11.20;100.00;101485.03;4900626;29;19954;-87
2023/04/17 08:45:05;;;;;;;;;;;;;;;11.22;100.00;101491.03;4916785;29;19930;-87
2023/04/17 08:47:32;;;;;;;;;;;;;;;11.23;100.00;101494.50;4913362;29;20379;-86
2023/04/17 08:49:57;;;;;;;;;;;;;;;11.26;100.00;101491.66;4922049;29;19994;-86
2023/04/17 08:52:23;;;;;;;;;;;;;;;11.24;100.00;101494.41;4919296;29;20614;-86
2023/04/17 08:54:49;;;;;;;;;;;;;;;11.29;100.00;101497.50;4911214;29;19922;-85
2023/04/17 08:57:15;;;;;;;;;;;;;;;11.36;100.00;101497.03;4908269;29;20025;-88
2023/04/17 08:59:41;;;;;;;;;;;;;;;11.44;100.00;101499.03;4911413;29;19922;-85
2023/04/17 09:02:07;;;;;;;;;;;;;;;11.48;100.00;101497.84;4926076;29;19923;-86
2023/04/17 09:04:34;;;;;;;;;;;;;;;11.57;100.00;101496.25;4908173;29;20565;-86
2023/04/17 09:07:00;;;;;;;;;;;;;;;11.60;100.00;101499.50;4919540;29;20169;-86
2023/04/17 09:09:44;;;;;;;;;;;;;;;11.63;100.00;101496.59;4922901;29;20644;-86
2023/04/17 09:12:10;;;;;;;;;;;;;;;11.68;100.00;101504.16;4922349;29;19967;-86
2023/04/17 09:14:36;;;;;;;;;;;;;;;11.70;100.00;101502.25;4924372;29;20418;-86
2023/04/17 09:17:01;;;;;;;;;;;;;;;11.75;100.00;101499.22;4901123;29;19935;-86
2023/04/17 09:19:27;;;;;;;;;;;;;;;11.78;100.00;101504.25;4881294;29;19923;-86
2023/04/17 09:21:53;;;;;;;;;;;;;;;11.86;100.00;101493.88;4902903;29;20312;-87
2023/04/17 09:24:31;;;;;;;;;;;;;;;11.90;100.00;101499.75;4931154;28;20025;-85
2023/04/17 09:27:16;;;;;;;;;;;;;;;11.96;100.00;101496.59;4902397;29;20009;-86
2023/04/17 09:29:57;;;;;;;;;;;;;;;12.01;100.00;101494.41;4918209;29;20562;-86
2023/04/17 09:32:24;;;;;;;;;;;;;;;12.03;100.00;101494.28;4914368;29;20029;-86
2023/04/17 09:34:50;;;;;;;;;;;;;;;12.08;100.00;101497.41;4923036;29;19924;-87
2023/04/17 09:37:16;;;;;;;;;;;;;;;12.15;100.00;101497.75;4887182;29;19934;-87
2023/04/17 09:39:58;;;;;;;;;;;;;;;12.22;100.00;101504.22;4918990;29;20043;-87
2023/04/17 09:42:25;;;;;;;;;;;;;;;12.27;100.00;101501.16;4924162;29;20523;-86
2023/04/17 09:44:50;;;;;;;;;;;;;;;12.28;100.00;101498.38;4911244;29;19927;-86
2023/04/17 09:47:17;;;;;;;;;;;;;;;12.29;100.00;101509.84;4908965;29;20449;-86
2023/04/17 09:49:51;;;;;;;;;;;;;;;12.29;100.00;101507.19;4899590;29;19919;-86
2023/04/17 09:52:17;;;;;;;;;;;;;;;12.26;100.00;101505.63;4923172;29;20578;-86
2023/04/17 09:54:43;;;;;;;;;;;;;;;12.24;100.00;101506.72;4893376;29;19931;-87
2023/04/17 09:57:09;;;;;;;;;;;;;;;12.28;100.00;101506.34;4908410;29;19931;-87
2023/04/17 09:59:39;;;;;;;;;;;;;;;12.32;100.00;101511.38;4909356;29;20319;-86
2023/04/17 10:02:08;;;;;;;;;;;;;;;12.34;100.00;101512.09;4940847;28;20415;-87
2023/04/17 10:04:34;;;;;;;;;;;;;;;12.36;100.00;101518.94;4916923;29;19954;-86
2023/04/17 10:07:01;;;;;;;;;;;;;;;12.36;100.00;101518.13;4889545;29;19955;-86
2023/04/17 10:09:27;;;;;;;;;;;;;;;12.45;100.00;101512.03;4918499;29;20289;-86
2023/04/17 10:11:53;;;;;;;;;;;;;;;12.49;100.00;101515.25;4915533;29;19926;-87
2023/04/17 10:14:23;;;;;;;;;;;;;;;12.59;100.00;101513.50;4924237;29;19987;-86
2023/04/17 10:16:49;;;;;;;;;;;;;;;12.69;100.00;101516.22;4914693;29;20001;-86
2023/04/17 10:19:35;;;;;;;;;;;;;;;12.80;100.00;101522.41;4913966;29;19923;-86
2023/04/17 10:22:13;;;;;;;;;;;;;;;12.87;100.00;101526.19;4916192;28;20333;-86
2023/04/17 10:24:39;;;;;;;;;;;;;;;12.92;100.00;101525.78;4927839;29;19919;-86
2023/04/17 10:27:23;;;;;;;;;;;;;;;13.00;100.00;101521.50;4899942;29;20534;-86
2023/04/17 10:29:58;;;;;;;;;;;;;;;13.04;100.00;101527.41;4928152;29;19926;-86
2023/04/17 10:32:25;;;;;;;;;;;;;;;13.14;100.00;101527.41;4921407;29;19919;-86
2023/04/17 10:34:56;;;;;;;;;;;;;;;13.26;100.00;101520.19;4908307;29;19962;-86
2023/04/17 10:37:43;;;;;;;;;;;;;;;13.29;100.00;101522.59;4904249;29;19928;-81
2023/04/17 10:40:10;;;;;;;;;;;;;;;13.44;100.00;101523.03;4925295;29;20307;-81
2023/04/17 10:42:35;;;;;;;;;;;;;;;13.58;100.00;101523.66;4905548;29;19962;-86
2023/04/17 10:45:04;;;;;;;;;;;;;;;13.73;100.00;101527.59;4907935;29;20376;-86
2023/04/17 10:47:34;;;;;;;;;;;;;;;13.81;100.00;101521.56;4901870;29;19923;-85
2023/04/17 10:50:04;;;;;;;;;;;;;;;13.87;100.00;101528.97;4909270;29;19974;-86
2023/04/17 10:52:39;;;;;;;;;;;;;;;13.84;100.00;101534.59;4915914;29;19927;-87
2023/04/17 10:55:21;;;;;;;;;;;;;;;13.79;100.00;101531.53;4933068;28;20066;-86
2023/04/17 10:57:56;;;;;;;;;;;;;;;13.83;100.00;101540.03;4914489;29;19931;-85
2023/04/17 11:00:31;;;;;;;;;;;;;;;13.83;100.00;101534.72;4925452;29;19923;-85
2023/04/17 11:02:58;;;;;;;;;;;;;;;13.72;100.00;101544.50;4923695;29;19931;-86
2023/04/17 11:05:24;;;;;;;;;;;;;;;13.74;100.00;101547.03;4923900;29;19967;-86
2023/04/17 11:07:50;;;;;;;;;;;;;;;13.72;100.00;101551.63;4919343;29;19923;-86
2023/04/17 11:10:20;;;;;;;;;;;;;;;13.71;100.00;101545.47;4921013;28;19926;-86
2023/04/17 11:12:52;;;;;;;;;;;;;;;13.71;100.00;101545.47;4909309;29;19919;-86
2023/04/17 11:15:24;;;;;;;;;;;;;;;13.64;100.00;101544.34;4917286;29;19922;-87
2023/04/17 11:17:50;;;;;;;;;;;;;;;13.61;100.00;101555.25;4900264;28;19962;-86
2023/04/17 11:20:19;;;;;;;;;;;;;;;13.63;100.00;101554.13;4941128;29;19989;-86
2023/04/17 11:22:45;;;;;;;;;;;;;;;13.59;100.00;101550.09;4917828;29;19966;-86
2023/04/17 11:25:24;;;;;;;;;;;;;;;13.55;100.00;101561.97;4949324;28;20411;-86
2023/04/17 11:28:00;;;;;;;;;;;;;;;13.58;100.00;101556.38;4913865;29;19922;-86
2023/04/17 11:30:31;;;;;;;;;;;;;;;13.64;100.00;101555.84;4941226;28;20296;-86
2023/04/17 11:32:58;;;;;;;;;;;;;;;13.67;100.00;101553.84;4927541;29;19927;-87
2023/04/17 11:35:30;;;;;;;;;;;;;;;13.64;100.00;101560.28;4919604;29;20005;-86
2023/04/17 11:38:05;;;;;;;;;;;;;;;13.64;100.00;101553.19;4930477;29;19930;-85
2023/04/17 11:40:31;;;;;;;;;;;;;;;13.67;100.00;101553.84;4934586;29;20406;-86
2023/04/17 11:43:01;;;;;;;;;;;;;;;13.65;100.00;101561.97;4939109;28;19922;-87
2023/04/17 11:45:29;;;;;;;;;;;;;;;13.60;100.00;101556.25;4922179;29;19919;-86
2023/04/17 11:47:55;;;;;;;;;;;;;;;13.58;100.00;101556.38;4937802;29;20419;-86
2023/04/17 11:50:21;;;;;;;;;;;;;;;13.50;100.00;101558.84;4906837;29;19929;-86
2023/04/17 11:52:46;;;;;;;;;;;;;;;13.49;100.00;101552.69;4913503;29;20438;-86
2023/04/17 11:55:13;;;;;;;;;;;;;;;13.40;100.00;101548.19;4923863;29;19919;-85
2023/04/17 11:57:40;;;;;;;;;;;;;;;13.38;100.00;101543.00;4925685;29;19927;-86
2023/04/17 12:00:12;;;;;;;;;;;;;;;13.40;100.00;101559.66;4933100;29;20858;-87
2023/04/17 12:02:38;;;;;;;;;;;;;;;13.36;100.00;101554.75;4949521;28;20005;-86
2023/04/17 12:05:13;;;;;;;;;;;;;;;13.39;100.00;101562.44;4908351;29;20007;-86
2023/04/17 12:07:39;;;;;;;;;;;;;;;13.44;100.00;101568.19;4912953;29;19978;-87
2023/04/17 12:10:05;;;;;;;;;;;;;;;13.43;100.00;101565.66;4919244;29;19922;-86
2023/04/17 12:12:30;;;;;;;;;;;;;;;13.37;100.00;101565.25;4938706;28;19990;-86
2023/04/17 12:14:57;;;;;;;;;;;;;;;13.36;100.00;101566.19;4939336;28;20419;-86
2023/04/17 12:17:23;;;;;;;;;;;;;;;13.33;100.00;101566.47;4911995;29;20282;-86
2023/04/17 12:19:49;;;;;;;;;;;;;;;13.36;100.00;101576.81;4901577;29;19922;-86
2023/04/17 12:22:15;;;;;;;;;;;;;;;13.33;100.00;101574.44;4906693;29;20001;-86
2023/04/17 12:24:41;;;;;;;;;;;;;;;13.33;100.00;101578.94;4917192;29;20582;-86
2023/04/17 12:27:06;;;;;;;;;;;;;;;13.34;100.00;101577.94;4916247;29;20268;-81
2023/04/17 12:29:32;;;;;;;;;;;;;;;13.33;100.00;101578.94;4909286;29;19965;-81